Aérodrome :
LOGIN :

S'inscrire | Disclaimer

   EN    FR    IT 

 










Légende :    VFR   VFR Marginal   IFR   IFR Intensif   IFR Très Intensif
Visi : 
Plafond : 
>= 8 km
>= 3000ft
5 à 8 km
1000 à 3000 ft
1500m à 5 km
500 à 1000 ft
800 à 1500m
200 à 500 ft
< 800m
< 200 ft
Symboles :   Orages  Brouillard  Fortes neiges  Fortes précipitations  Vent > 20 kt
SIGMETs :   Divers  Orages  Givrage  Turbulence  Onde Orograph.  Cendres Volcan.







- Altitude de l'aérodrome : 194 ft
- Code IATA : ANE
- Voir les cartes d'approche


LFJR - Angers Marcé

DERNIER METAR :
  • 281200Z AUTO 24010KT 210V290 9999 SCT030 BKN037 BKN046 22/14 Q0999 TEMPO 4000 -SHRA BKN012 BKN030CB

METARs EXPIRÉS :
  • 281130Z AUTO 26008KT 210V290 9999 BKN029 BKN056 BKN210 21/16 Q0999 TEMPO 4000 -SHRA BKN012 BKN030CB
  • 281100Z AUTO 26008KT 9999 ///CB 19/15 Q0999 TEMPO 4000 -SHRA BKN030
  • 281030Z AUTO 24011KT 9999 BKN016/// BKN056/// OVC180/// ///TCU 19/17 Q0999 TEMPO 4000 -SHRA BKN030CB
  • 281000Z AUTO 23009KT 200V260 9999 SCT011/// BKN017/// BKN170/// ///TCU 20/18 Q0999 BECMG BKN030
  • 280930Z AUTO 24010KT 9999 FEW007/// BKN011/// BKN025/// ///TCU 18/16 Q0999 BECMG BKN030

TAF TAF LFJR
Valide du 28 à 12h jusqu'au 28 à 21h UTC


281100Z 2812/2821 24010KT 9999 BKN020
BECMG 2818/2821 VRB03KT
TEMPO 2812/2821 4000 -SHRA BKN012 BKN030CB
PROB40
TEMPO 2814/2821 VRB15G25KT 2000 TSRAGR BKN008 BKN030CB
Pas de NOTAMs connus pour ce terrain.
2 SIGMETs publiés pour la FIR Brest (LFRR) :
 
Orages noyés dans la masse
LFRR SIGMET 6 VALID 281200/281400 LFPW
LFRR BREST FIR/UIR EMBD TS OBS AT 1200Z WI N4715 W00015 - N4630 W00015 - N4630 W00130 - N4345 W00145 - N4600 W00315 - N4730 W00145 TOP FL310 MOV E 20KT NC=
Orages noyés dans la masse
LFRR SIGMET 5 VALID 281000/281200 LFPW
LFRR BREST FIR/UIR EMBD TS FCST WI N4615 W00130 - N4330 W00145 - N4345 W00230 - N4500 W00215 - N4615 W00730 - N4715 W00730 TOP FL310 MOV E 25KT NC=



MET'MAP, la Météo Aéronautique d'un coup d'oeil ! - Copyright ORBIFLY Décembre 2007 - Disclaimer

ORBIFLY MET'MAP TEAM :

Programmation & Développement : Alexandra Zaïnal
Conception & Développement : Baudouin d'Aumeries
Co-Programmation & Développement : Marc-Olivier Méhu
Soutien technique & logistique : Manuel Goepfert

Contact : metmap@orbifly.com




SOURCES & CREDITS :

   NOAA